Time;durP1;ratioP1;P1;durP2;ratioP2;P2;SDS_P1;SDS_P2;PMS_P1;PMS_P2;Temp;Humidity;BMP_temperature;BMP_pressure;BME280_temperature;BME280_humidity;BME280_pressure;Samples;Min_cycle;Max_cycle;Signal;HPM_P1;HPM_P2
2024/01/13 00:02:07;;;;;;;38.20;16.55;;;;;;;;;;4975686;28;20829;-67
2024/01/13 00:04:32;;;;;;;45.30;19.35;;;;;;;;;;4976149;28;20054;-68
2024/01/13 00:06:58;;;;;;;42.95;20.13;;;;;;;;;;4974766;28;20065;-68
2024/01/13 00:09:23;;;;;;;34.45;13.10;;;;;;;;;;4975329;28;20053;-68
2024/01/13 00:11:48;;;;;;;59.38;21.02;;;;;;;;;;4957935;28;20868;-68
2024/01/13 00:14:14;;;;;;;53.65;21.95;;;;;;;;;;4975385;28;20046;-68
2024/01/13 00:16:39;;;;;;;39.53;15.90;;;;;;;;;;4976819;28;20058;-68
2024/01/13 00:19:05;;;;;;;63.95;20.08;;;;;;;;;;4973354;28;20134;-68
2024/01/13 00:21:30;;;;;;;54.95;21.38;;;;;;;;;;4976561;28;20050;-68
2024/01/13 00:23:56;;;;;;;56.42;21.45;;;;;;;;;;4975728;28;20046;-68
2024/01/13 00:26:22;;;;;;;41.30;16.55;;;;;;;;;;4976267;28;20072;-67
2024/01/13 00:28:48;;;;;;;43.70;19.58;;;;;;;;;;4956866;28;20182;-68
2024/01/13 00:31:13;;;;;;;40.00;16.98;;;;;;;;;;4974927;28;20050;-68
2024/01/13 00:33:43;;;;;;;50.45;19.80;;;;;;;;;;4975946;28;20137;-68
2024/01/13 00:36:09;;;;;;;42.40;16.33;;;;;;;;;;4976138;28;20661;-67
2024/01/13 00:38:35;;;;;;;37.10;16.45;;;;;;;;;;4962181;28;20053;-67
2024/01/13 00:41:00;;;;;;;63.90;20.33;;;;;;;;;;4978170;28;20105;-67
2024/01/13 00:43:26;;;;;;;35.70;15.23;;;;;;;;;;4961505;28;20046;-67
2024/01/13 00:45:52;;;;;;;53.22;20.20;;;;;;;;;;4981358;28;20074;-67
2024/01/13 00:48:17;;;;;;;55.50;21.85;;;;;;;;;;4960931;28;20535;-67
2024/01/13 00:50:43;;;;;;;71.32;24.15;;;;;;;;;;4962809;28;20098;-67
2024/01/13 00:53:08;;;;;;;53.92;18.27;;;;;;;;;;4977441;28;20076;-67
2024/01/13 00:55:34;;;;;;;40.42;18.23;;;;;;;;;;4979497;28;20098;-67
2024/01/13 00:57:59;;;;;;;58.13;20.55;;;;;;;;;;4978106;28;20041;-67
2024/01/13 01:00:24;;;;;;;44.75;16.23;;;;;;;;;;4979189;28;20137;-68
2024/01/13 01:02:50;;;;;;;29.92;13.38;;;;;;;;;;4977693;28;20094;-67
2024/01/13 01:05:15;;;;;;;51.58;19.70;;;;;;;;;;4977149;28;20046;-67
2024/01/13 01:07:41;;;;;;;54.55;20.67;;;;;;;;;;4978526;28;20503;-67
2024/01/13 01:10:06;;;;;;;33.83;13.90;;;;;;;;;;4960736;28;20443;-67
2024/01/13 01:12:32;;;;;;;23.00;12.38;;;;;;;;;;4977247;28;20093;-67
2024/01/13 01:14:57;;;;;;;31.35;14.35;;;;;;;;;;4979226;28;20482;-67
2024/01/13 01:17:22;;;;;;;53.35;19.50;;;;;;;;;;4976851;28;20113;-67
2024/01/13 01:19:48;;;;;;;39.38;18.10;;;;;;;;;;4978878;28;20047;-67
2024/01/13 01:22:13;;;;;;;33.67;12.77;;;;;;;;;;4977375;28;20046;-67
2024/01/13 01:24:38;;;;;;;36.50;14.13;;;;;;;;;;4976713;28;20241;-67
2024/01/13 01:27:04;;;;;;;35.90;15.07;;;;;;;;;;4976955;28;20511;-67
2024/01/13 01:29:29;;;;;;;35.70;15.20;;;;;;;;;;4978585;28;20042;-67
2024/01/13 01:31:55;;;;;;;43.85;16.48;;;;;;;;;;4978145;28;20086;-67
2024/01/13 01:34:20;;;;;;;28.90;11.88;;;;;;;;;;4975946;28;20038;-67
2024/01/13 01:36:45;;;;;;;30.33;12.80;;;;;;;;;;4977103;28;20418;-67
2024/01/13 01:39:11;;;;;;;34.80;14.23;;;;;;;;;;4975264;28;20077;-68
2024/01/13 01:41:36;;;;;;;24.38;10.43;;;;;;;;;;4959676;28;20053;-67
2024/01/13 01:44:02;;;;;;;39.83;13.27;;;;;;;;;;4977811;28;20702;-68
2024/01/13 01:46:30;;;;;;;37.20;13.95;;;;;;;;;;4977105;28;20060;-67
2024/01/13 01:48:58;;;;;;;45.72;16.17;;;;;;;;;;4978231;28;20050;-66
2024/01/13 01:51:24;;;;;;;57.10;23.85;;;;;;;;;;4976674;28;20061;-67
2024/01/13 01:53:50;;;;;;;14.95;7.20;;;;;;;;;;4960380;28;20054;-67
2024/01/13 01:56:25;;;;;;;24.60;10.98;;;;;;;;;;4977031;28;20047;-67
2024/01/13 01:58:53;;;;;;;22.58;12.00;;;;;;;;;;4978007;28;20133;-66
2024/01/13 02:01:19;;;;;;;38.63;16.33;;;;;;;;;;4959103;28;20360;-66
2024/01/13 02:03:45;;;;;;;40.03;14.75;;;;;;;;;;4960125;28;20121;-68
2024/01/13 02:06:12;;;;;;;30.00;12.95;;;;;;;;;;4977864;28;20057;-65
2024/01/13 02:08:37;;;;;;;29.65;14.63;;;;;;;;;;4978437;28;20054;-65
2024/01/13 02:11:03;;;;;;;20.30;10.93;;;;;;;;;;4960124;28;20400;-65
2024/01/13 02:13:29;;;;;;;44.13;16.75;;;;;;;;;;4978065;28;20050;-67
2024/01/13 02:15:54;;;;;;;35.63;15.60;;;;;;;;;;4977545;28;20419;-68
2024/01/13 02:18:20;;;;;;;38.47;16.27;;;;;;;;;;4958942;28;20057;-67
2024/01/13 02:20:45;;;;;;;35.05;14.85;;;;;;;;;;4978388;28;20042;-66
2024/01/13 02:23:10;;;;;;;45.70;20.17;;;;;;;;;;4976360;28;20062;-66
2024/01/13 02:25:36;;;;;;;58.30;21.10;;;;;;;;;;4979426;28;20153;-67
2024/01/13 02:28:01;;;;;;;21.05;13.00;;;;;;;;;;4980875;28;20106;-67
2024/01/13 02:30:27;;;;;;;35.20;13.10;;;;;;;;;;4961657;28;20769;-66
2024/01/13 02:32:52;;;;;;;48.47;18.58;;;;;;;;;;4979742;28;20108;-67
2024/01/13 02:35:17;;;;;;;50.95;16.33;;;;;;;;;;4979534;28;20056;-67
2024/01/13 02:37:43;;;;;;;27.90;11.65;;;;;;;;;;4979714;28;20057;-67
2024/01/13 02:40:09;;;;;;;40.20;16.92;;;;;;;;;;4978902;28;20213;-67
2024/01/13 02:42:35;;;;;;;43.30;15.55;;;;;;;;;;4978420;28;20061;-67
2024/01/13 02:45:01;;;;;;;20.70;11.85;;;;;;;;;;4979979;28;20050;-67
2024/01/13 02:47:41;;;;;;;57.15;19.88;;;;;;;;;;4978038;28;20109;-66
2024/01/13 02:50:07;;;;;;;23.20;11.68;;;;;;;;;;4976655;28;20038;-66
2024/01/13 02:52:32;;;;;;;24.95;9.57;;;;;;;;;;4977287;28;20154;-66
2024/01/13 02:54:58;;;;;;;60.35;20.38;;;;;;;;;;4976900;28;20050;-66
2024/01/13 02:57:25;;;;;;;34.97;14.25;;;;;;;;;;4975190;28;20141;-66
2024/01/13 02:59:51;;;;;;;33.65;13.85;;;;;;;;;;4957570;28;21188;-66
2024/01/13 03:02:17;;;;;;;25.88;13.02;;;;;;;;;;4976490;28;20046;-66
2024/01/13 03:04:42;;;;;;;39.15;17.48;;;;;;;;;;4977143;28;20050;-64
2024/01/13 03:07:08;;;;;;;37.67;16.15;;;;;;;;;;4962070;28;20868;-70
2024/01/13 03:09:33;;;;;;;33.83;14.50;;;;;;;;;;4978924;28;20119;-69
2024/01/13 03:11:58;;;;;;;58.55;19.90;;;;;;;;;;4980725;28;20468;-68
2024/01/13 03:14:24;;;;;;;18.45;9.98;;;;;;;;;;4980657;28;20046;-68
2024/01/13 03:16:49;;;;;;;31.15;15.45;;;;;;;;;;4980609;28;20621;-68
2024/01/13 03:19:15;;;;;;;33.50;15.82;;;;;;;;;;4978825;28;20042;-67
2024/01/13 03:21:41;;;;;;;41.63;14.38;;;;;;;;;;4959921;28;20503;-68
2024/01/13 03:24:06;;;;;;;29.55;13.73;;;;;;;;;;4979156;28;20056;-66
2024/01/13 03:26:31;;;;;;;28.30;15.88;;;;;;;;;;4976990;28;20062;-67
2024/01/13 03:28:57;;;;;;;20.92;10.82;;;;;;;;;;4977894;28;20046;-68
2024/01/13 03:31:22;;;;;;;40.40;16.13;;;;;;;;;;4975474;28;20077;-68
2024/01/13 03:33:47;;;;;;;38.53;15.68;;;;;;;;;;4958720;28;20554;-67
2024/01/13 03:36:13;;;;;;;31.42;12.50;;;;;;;;;;4976699;28;20109;-67
2024/01/13 03:38:39;;;;;;;29.23;13.38;;;;;;;;;;4977407;28;20046;-67
2024/01/13 03:41:05;;;;;;;50.25;20.85;;;;;;;;;;4976754;28;20038;-67
2024/01/13 03:43:30;;;;;;;44.47;17.67;;;;;;;;;;4976187;28;20046;-67
2024/01/13 03:45:56;;;;;;;30.00;14.35;;;;;;;;;;4977700;28;20073;-68
2024/01/13 03:48:21;;;;;;;29.80;13.55;;;;;;;;;;4976998;28;20430;-68
2024/01/13 03:50:47;;;;;;;50.63;17.65;;;;;;;;;;4976845;28;20065;-69
2024/01/13 03:53:12;;;;;;;44.17;18.00;;;;;;;;;;4976153;28;20134;-68
2024/01/13 03:55:37;;;;;;;25.50;13.23;;;;;;;;;;4976473;28;20178;-67
2024/01/13 03:58:03;;;;;;;30.95;14.93;;;;;;;;;;4976606;28;20069;-66
2024/01/13 04:00:29;;;;;;;41.85;14.98;;;;;;;;;;4958055;28;20101;-66
2024/01/13 04:02:55;;;;;;;13.68;6.80;;;;;;;;;;4976438;28;20038;-66
2024/01/13 04:05:20;;;;;;;29.80;13.80;;;;;;;;;;4974280;28;20097;-67
2024/01/13 04:07:46;;;;;;;34.92;14.35;;;;;;;;;;4975046;28;20042;-65
2024/01/13 04:10:11;;;;;;;26.42;15.10;;;;;;;;;;4977026;28;20066;-66
2024/01/13 04:12:39;;;;;;;35.92;13.55;;;;;;;;;;4979120;28;21140;-68
2024/01/13 04:15:05;;;;;;;28.50;13.93;;;;;;;;;;4964249;28;20034;-67
2024/01/13 04:17:31;;;;;;;21.67;12.25;;;;;;;;;;4979694;28;20101;-67
2024/01/13 04:19:56;;;;;;;32.35;14.45;;;;;;;;;;4982203;28;20077;-68
2024/01/13 04:22:23;;;;;;;26.65;13.50;;;;;;;;;;4981040;28;20129;-68
2024/01/13 04:24:48;;;;;;;28.92;15.55;;;;;;;;;;4965576;28;20096;-67
2024/01/13 04:27:13;;;;;;;31.65;13.90;;;;;;;;;;4981994;28;20483;-68
2024/01/13 04:29:39;;;;;;;44.72;17.85;;;;;;;;;;4982184;28;20074;-68
2024/01/13 04:32:05;;;;;;;30.85;13.98;;;;;;;;;;4962637;28;20340;-67
2024/01/13 04:34:31;;;;;;;30.13;14.10;;;;;;;;;;4980221;28;20057;-67
2024/01/13 04:36:56;;;;;;;30.63;14.10;;;;;;;;;;4981481;28;20054;-67
2024/01/13 04:39:22;;;;;;;27.42;13.18;;;;;;;;;;4978127;28;20861;-66
2024/01/13 04:41:48;;;;;;;24.13;10.88;;;;;;;;;;4962611;28;20034;-67
2024/01/13 04:44:13;;;;;;;41.72;15.35;;;;;;;;;;4980021;28;20050;-68
2024/01/13 04:46:39;;;;;;;23.50;9.38;;;;;;;;;;4978778;28;20070;-68
2024/01/13 04:49:04;;;;;;;22.60;11.52;;;;;;;;;;4976211;28;20384;-68
2024/01/13 04:51:29;;;;;;;32.47;14.75;;;;;;;;;;4960335;28;20064;-66
2024/01/13 04:53:56;;;;;;;27.08;10.90;;;;;;;;;;4982069;28;20503;-66
2024/01/13 04:56:22;;;;;;;17.02;9.40;;;;;;;;;;4986946;28;20050;-67
2024/01/13 04:58:48;;;;;;;14.25;6.15;;;;;;;;;;4980426;28;20056;-68
2024/01/13 05:01:13;;;;;;;23.33;10.98;;;;;;;;;;4979681;28;20043;-68
2024/01/13 05:03:39;;;;;;;33.72;14.18;;;;;;;;;;4980645;28;20042;-67
2024/01/13 05:06:06;;;;;;;17.58;9.63;;;;;;;;;;4981087;28;20138;-68
2024/01/13 05:08:32;;;;;;;47.30;18.15;;;;;;;;;;4980406;28;20766;-66
2024/01/13 05:10:57;;;;;;;21.25;7.72;;;;;;;;;;4980237;28;20524;-65
2024/01/13 05:13:23;;;;;;;21.95;11.57;;;;;;;;;;4976893;28;20045;-66
2024/01/13 05:15:48;;;;;;;25.38;11.70;;;;;;;;;;4978366;28;20072;-66
2024/01/13 05:18:14;;;;;;;20.92;10.13;;;;;;;;;;4978627;28;20097;-66
2024/01/13 05:20:39;;;;;;;8.48;6.50;;;;;;;;;;4977464;28;20133;-66
2024/01/13 05:23:04;;;;;;;23.67;9.98;;;;;;;;;;4976756;28;20089;-66
2024/01/13 05:25:30;;;;;;;12.50;7.13;;;;;;;;;;4959388;28;20566;-66
2024/01/13 05:27:55;;;;;;;14.98;7.88;;;;;;;;;;4978904;28;20046;-66
2024/01/13 05:30:21;;;;;;;8.55;5.78;;;;;;;;;;4959527;28;20053;-67
2024/01/13 05:32:47;;;;;;;45.25;15.35;;;;;;;;;;4980221;28;20056;-67
2024/01/13 05:35:12;;;;;;;22.00;9.82;;;;;;;;;;4979463;28;20050;-68
2024/01/13 05:37:38;;;;;;;16.00;9.25;;;;;;;;;;4962388;28;20100;-68
2024/01/13 05:40:05;;;;;;;24.05;11.43;;;;;;;;;;4980831;28;20034;-68
2024/01/13 05:42:31;;;;;;;50.03;17.73;;;;;;;;;;4960107;28;20083;-67
2024/01/13 05:44:56;;;;;;;26.85;12.18;;;;;;;;;;4979983;28;20042;-68
2024/01/13 05:47:22;;;;;;;32.85;14.27;;;;;;;;;;4979173;28;20124;-67
2024/01/13 05:49:47;;;;;;;24.88;10.40;;;;;;;;;;4962664;28;20042;-68
2024/01/13 05:52:12;;;;;;;40.30;14.50;;;;;;;;;;4960907;28;20050;-68
2024/01/13 05:54:39;;;;;;;25.15;9.02;;;;;;;;;;4977355;28;20100;-68
2024/01/13 05:57:04;;;;;;;32.88;10.25;;;;;;;;;;4978559;28;20465;-68
2024/01/13 05:59:30;;;;;;;30.15;13.20;;;;;;;;;;4960353;28;20046;-68
2024/01/13 06:01:56;;;;;;;29.92;13.93;;;;;;;;;;4961619;28;20050;-68
2024/01/13 06:04:21;;;;;;;29.67;13.23;;;;;;;;;;4979549;28;20065;-68
2024/01/13 06:06:47;;;;;;;29.67;15.50;;;;;;;;;;4978634;28;20507;-68
2024/01/13 06:09:13;;;;;;;45.97;16.20;;;;;;;;;;4978396;28;20162;-69
2024/01/13 06:11:41;;;;;;;42.58;16.92;;;;;;;;;;4979504;28;20086;-68
2024/01/13 06:14:07;;;;;;;33.65;14.23;;;;;;;;;;4956170;28;20054;-68
2024/01/13 06:16:32;;;;;;;35.53;15.20;;;;;;;;;;4976878;28;20050;-69
2024/01/13 06:18:57;;;;;;;39.65;17.40;;;;;;;;;;4976078;28;20133;-69
2024/01/13 06:21:23;;;;;;;46.55;17.15;;;;;;;;;;4942944;28;20122;-68
2024/01/13 06:23:48;;;;;;;29.98;13.95;;;;;;;;;;4974535;28;20050;-67
2024/01/13 06:26:14;;;;;;;28.35;13.45;;;;;;;;;;4976433;28;20096;-69
2024/01/13 06:28:39;;;;;;;28.00;12.05;;;;;;;;;;4976252;28;20042;-68
2024/01/13 06:31:05;;;;;;;21.00;11.45;;;;;;;;;;4977347;28;20965;-68
2024/01/13 06:33:30;;;;;;;35.92;16.50;;;;;;;;;;4942371;28;20046;-67
2024/01/13 06:35:55;;;;;;;35.00;13.63;;;;;;;;;;4957809;28;20053;-67
2024/01/13 06:38:21;;;;;;;31.98;12.75;;;;;;;;;;4976426;28;20137;-67
2024/01/13 06:40:46;;;;;;;17.25;8.77;;;;;;;;;;4974738;28;20642;-68
2024/01/13 06:43:13;;;;;;;17.45;8.68;;;;;;;;;;4958804;28;20046;-68
2024/01/13 06:45:39;;;;;;;21.92;11.02;;;;;;;;;;4972288;28;20046;-69
2024/01/13 06:48:04;;;;;;;27.02;13.70;;;;;;;;;;4974578;28;20407;-68
2024/01/13 06:50:30;;;;;;;34.42;13.85;;;;;;;;;;4973403;28;20514;-67
2024/01/13 06:52:55;;;;;;;33.28;14.13;;;;;;;;;;4976554;28;20141;-68
2024/01/13 06:55:23;;;;;;;32.03;13.88;;;;;;;;;;4975707;28;20070;-68
2024/01/13 06:57:50;;;;;;;25.73;10.88;;;;;;;;;;4975576;28;20042;-68
2024/01/13 07:00:15;;;;;;;28.80;13.85;;;;;;;;;;4977509;28;20138;-68
2024/01/13 07:02:41;;;;;;;37.47;13.05;;;;;;;;;;4975377;28;20117;-68
2024/01/13 07:05:07;;;;;;;35.22;11.95;;;;;;;;;;4975652;28;20050;-69
2024/01/13 07:07:32;;;;;;;30.02;12.80;;;;;;;;;;4974182;28;20093;-69
2024/01/13 07:09:58;;;;;;;38.65;15.13;;;;;;;;;;4974904;28;20070;-68
2024/01/13 07:12:23;;;;;;;37.63;15.88;;;;;;;;;;4957302;28;20061;-69
2024/01/13 07:14:49;;;;;;;29.80;13.70;;;;;;;;;;4974092;28;20046;-68
2024/01/13 07:17:14;;;;;;;34.20;14.32;;;;;;;;;;4970856;28;20130;-68
2024/01/13 07:19:39;;;;;;;34.58;15.80;;;;;;;;;;4955552;28;20510;-68
2024/01/13 07:22:05;;;;;;;36.20;14.73;;;;;;;;;;4976876;28;20065;-68
2024/01/13 07:24:31;;;;;;;33.53;14.57;;;;;;;;;;4957058;28;20085;-68
2024/01/13 07:26:57;;;;;;;33.55;16.13;;;;;;;;;;4956709;28;20081;-69
2024/01/13 07:29:22;;;;;;;26.92;12.57;;;;;;;;;;4955668;28;20129;-68
2024/01/13 07:31:47;;;;;;;42.55;14.55;;;;;;;;;;4974515;28;20050;-70
2024/01/13 07:34:13;;;;;;;26.30;10.68;;;;;;;;;;4975580;28;20046;-70
2024/01/13 07:36:38;;;;;;;37.55;14.93;;;;;;;;;;4975881;28;20050;-69
2024/01/13 07:39:08;;;;;;;36.95;15.52;;;;;;;;;;4974656;28;20038;-68
2024/01/13 07:41:33;;;;;;;41.33;16.60;;;;;;;;;;4973088;28;20120;-68
2024/01/13 07:43:59;;;;;;;38.30;16.08;;;;;;;;;;4956364;28;20039;-68
2024/01/13 07:46:25;;;;;;;26.83;12.40;;;;;;;;;;4974672;28;20058;-69
2024/01/13 07:48:50;;;;;;;42.13;16.42;;;;;;;;;;4975860;28;20058;-69
2024/01/13 07:51:15;;;;;;;36.42;15.13;;;;;;;;;;4976321;28;20057;-69
2024/01/13 07:53:41;;;;;;;31.63;13.55;;;;;;;;;;4974328;28;20122;-70
2024/01/13 07:56:06;;;;;;;23.33;10.05;;;;;;;;;;4975728;28;20132;-69
2024/01/13 07:58:32;;;;;;;25.13;10.85;;;;;;;;;;4975038;28;20630;-71
2024/01/13 08:00:57;;;;;;;27.60;12.38;;;;;;;;;;4973989;28;20038;-68
2024/01/13 08:03:23;;;;;;;28.20;12.50;;;;;;;;;;4974564;28;20038;-71
2024/01/13 08:05:48;;;;;;;22.02;9.80;;;;;;;;;;4971535;28;20066;-70
2024/01/13 08:08:14;;;;;;;24.08;10.77;;;;;;;;;;4974433;28;20861;-69
2024/01/13 08:10:39;;;;;;;17.30;6.45;;;;;;;;;;4974798;28;20078;-70
2024/01/13 08:13:05;;;;;;;12.05;6.30;;;;;;;;;;4975066;28;20061;-70
2024/01/13 08:15:30;;;;;;;16.90;9.15;;;;;;;;;;4973215;28;20173;-69
2024/01/13 08:17:56;;;;;;;26.30;12.27;;;;;;;;;;4975074;28;20154;-69
2024/01/13 08:20:21;;;;;;;28.95;11.68;;;;;;;;;;4956657;28;20149;-70
2024/01/13 08:22:46;;;;;;;18.13;9.70;;;;;;;;;;4975005;28;20381;-70
2024/01/13 08:25:13;;;;;;;27.00;10.75;;;;;;;;;;4973758;28;20056;-70
2024/01/13 08:27:38;;;;;;;18.38;9.52;;;;;;;;;;4975027;28;20046;-68
2024/01/13 08:30:05;;;;;;;23.27;8.90;;;;;;;;;;4975142;28;20395;-68
2024/01/13 08:32:31;;;;;;;16.92;8.75;;;;;;;;;;4977635;28;20447;-69
2024/01/13 08:34:57;;;;;;;3.67;3.33;;;;;;;;;;4975693;28;20045;-69
2024/01/13 08:37:22;;;;;;;13.43;8.32;;;;;;;;;;4974303;28;20042;-69
2024/01/13 08:39:48;;;;;;;19.25;8.48;;;;;;;;;;4973463;28;20038;-69
2024/01/13 08:42:14;;;;;;;15.88;7.53;;;;;;;;;;4974785;28;20073;-69
2024/01/13 08:44:39;;;;;;;16.95;8.85;;;;;;;;;;4974370;28;20396;-68
2024/01/13 08:47:04;;;;;;;23.52;10.40;;;;;;;;;;4974290;28;20046;-70
2024/01/13 08:49:30;;;;;;;15.48;7.68;;;;;;;;;;4954588;28;20559;-68
2024/01/13 08:51:55;;;;;;;14.48;7.70;;;;;;;;;;4954552;28;20129;-69
2024/01/13 08:54:23;;;;;;;16.30;9.77;;;;;;;;;;4975250;28;20041;-68
2024/01/13 08:56:49;;;;;;;26.58;10.25;;;;;;;;;;4956642;28;20061;-69
2024/01/13 08:59:15;;;;;;;20.00;9.30;;;;;;;;;;4977005;28;20420;-69
2024/01/13 09:01:40;;;;;;;30.38;12.07;;;;;;;;;;4977074;28;21184;-69
2024/01/13 09:04:09;;;;;;;25.65;10.23;;;;;;;;;;4978038;28;20046;-69
2024/01/13 09:06:35;;;;;;;19.42;11.05;;;;;;;;;;4961446;28;20598;-70
2024/01/13 09:09:01;;;;;;;25.05;12.63;;;;;;;;;;4960214;28;20050;-69
2024/01/13 09:11:26;;;;;;;27.23;12.60;;;;;;;;;;4977256;28;20500;-70
2024/01/13 09:13:51;;;;;;;32.10;13.48;;;;;;;;;;4976202;28;20061;-69
2024/01/13 09:16:17;;;;;;;33.60;13.65;;;;;;;;;;4977634;28;20058;-69
2024/01/13 09:18:42;;;;;;;30.42;12.73;;;;;;;;;;4975817;28;20554;-69
2024/01/13 09:21:08;;;;;;;17.92;9.30;;;;;;;;;;4978090;28;20038;-69
2024/01/13 09:23:34;;;;;;;19.05;10.45;;;;;;;;;;4977013;28;20057;-68
2024/01/13 09:26:02;;;;;;;28.17;11.15;;;;;;;;;;4978132;28;20582;-69
2024/01/13 09:28:28;;;;;;;22.67;11.93;;;;;;;;;;4978357;28;20053;-68
2024/01/13 09:30:53;;;;;;;30.55;12.38;;;;;;;;;;4977101;28;20049;-69
2024/01/13 09:33:19;;;;;;;22.27;9.27;;;;;;;;;;4962260;28;20050;-69
2024/01/13 09:35:44;;;;;;;15.70;6.47;;;;;;;;;;4977144;28;20046;-68
2024/01/13 09:38:10;;;;;;;13.27;8.38;;;;;;;;;;4978789;28;20514;-69
2024/01/13 09:40:41;;;;;;;14.35;8.13;;;;;;;;;;4978851;28;20050;-69
2024/01/13 09:43:28;;;;;;;24.10;10.45;;;;;;;;;;4959572;28;20042;-69
2024/01/13 09:45:54;;;;;;;25.52;11.45;;;;;;;;;;4976548;28;20038;-69
2024/01/13 09:48:20;;;;;;;33.25;13.43;;;;;;;;;;4977976;28;20415;-69
2024/01/13 09:50:52;;;;;;;26.13;10.55;;;;;;;;;;4976922;28;20050;-68
2024/01/13 09:53:47;;;;;;;22.00;10.30;;;;;;;;;;4976631;28;20061;-69
2024/01/13 09:56:20;;;;;;;12.15;6.65;;;;;;;;;;4977292;28;20053;-69
2024/01/13 09:58:46;;;;;;;18.92;10.20;;;;;;;;;;4976767;28;20042;-68
2024/01/13 10:01:12;;;;;;;26.15;11.35;;;;;;;;;;4977203;28;20034;-69
2024/01/13 10:03:38;;;;;;;25.02;10.85;;;;;;;;;;4978854;28;20050;-70
2024/01/13 10:06:04;;;;;;;18.75;10.13;;;;;;;;;;4977219;28;20507;-69
2024/01/13 10:08:33;;;;;;;30.52;13.10;;;;;;;;;;4977882;28;20964;-69
2024/01/13 10:11:04;;;;;;;21.55;10.43;;;;;;;;;;4977282;28;20042;-69
2024/01/13 10:13:30;;;;;;;20.10;9.60;;;;;;;;;;4977591;28;20053;-69
2024/01/13 10:15:55;;;;;;;19.75;10.45;;;;;;;;;;4976672;28;20053;-69
2024/01/13 10:18:23;;;;;;;16.10;9.38;;;;;;;;;;4972679;28;20081;-72
2024/01/13 10:20:49;;;;;;;22.23;10.10;;;;;;;;;;4947084;28;20046;-71
2024/01/13 10:23:16;;;;;;;19.85;9.68;;;;;;;;;;4976211;28;20061;-71
2024/01/13 10:25:41;;;;;;;24.17;7.97;;;;;;;;;;4976017;28;20050;-69
2024/01/13 10:28:07;;;;;;;29.13;11.43;;;;;;;;;;4958452;28;20069;-69
2024/01/13 10:30:32;;;;;;;19.48;8.60;;;;;;;;;;4974913;28;20047;-72
2024/01/13 10:32:59;;;;;;;16.88;8.48;;;;;;;;;;4975234;28;20464;-69
2024/01/13 10:35:26;;;;;;;23.25;9.60;;;;;;;;;;4957679;28;20833;-69
2024/01/13 10:37:51;;;;;;;26.35;11.07;;;;;;;;;;4975761;28;20054;-68
2024/01/13 10:40:17;;;;;;;18.83;9.80;;;;;;;;;;4974949;28;20046;-71
2024/01/13 10:42:46;;;;;;;26.45;10.18;;;;;;;;;;4974908;28;20486;-71
2024/01/13 10:45:16;;;;;;;23.10;10.05;;;;;;;;;;4975366;28;20045;-69
2024/01/13 10:47:44;;;;;;;23.20;11.68;;;;;;;;;;4975983;28;20061;-69
2024/01/13 10:50:11;;;;;;;12.07;8.13;;;;;;;;;;4974930;28;20642;-69
2024/01/13 10:52:48;;;;;;;22.48;9.65;;;;;;;;;;4974862;28;20046;-68
2024/01/13 10:55:14;;;;;;;20.13;9.32;;;;;;;;;;4974632;28;20046;-69
2024/01/13 10:57:41;;;;;;;20.33;10.43;;;;;;;;;;4973674;28;20515;-70
2024/01/13 11:00:10;;;;;;;20.15;10.32;;;;;;;;;;4955221;28;20073;-68
2024/01/13 11:02:37;;;;;;;21.25;9.80;;;;;;;;;;4974079;28;20121;-67
2024/01/13 11:05:04;;;;;;;23.08;10.48;;;;;;;;;;4972893;28;20058;-69
2024/01/13 11:07:29;;;;;;;23.80;8.80;;;;;;;;;;4974699;28;20064;-68
2024/01/13 11:09:58;;;;;;;14.40;7.80;;;;;;;;;;4975277;28;20050;-69
2024/01/13 11:13:02;;;;;;;18.52;9.02;;;;;;;;;;4976109;28;20050;-69
2024/01/13 11:15:35;;;;;;;17.35;8.48;;;;;;;;;;4974475;28;20065;-69
2024/01/13 11:18:02;;;;;;;16.48;8.98;;;;;;;;;;4975207;28;20451;-69
2024/01/13 11:20:27;;;;;;;15.25;7.72;;;;;;;;;;4974991;28;20122;-69
2024/01/13 11:22:57;;;;;;;16.02;8.00;;;;;;;;;;4957927;28;20471;-69
2024/01/13 11:25:27;;;;;;;17.45;8.82;;;;;;;;;;4975016;28;20108;-70
2024/01/13 11:27:58;;;;;;;16.55;7.90;;;;;;;;;;4975245;28;20042;-70
2024/01/13 11:30:39;;;;;;;13.68;8.00;;;;;;;;;;4976321;28;20477;-70
2024/01/13 11:33:11;;;;;;;13.43;8.65;;;;;;;;;;4941629;28;20182;-70
2024/01/13 11:35:38;;;;;;;18.77;8.27;;;;;;;;;;4972975;28;20046;-69
2024/01/13 11:38:06;;;;;;;14.18;7.57;;;;;;;;;;4975012;28;20046;-68
2024/01/13 11:40:32;;;;;;;20.42;9.90;;;;;;;;;;4975303;28;20043;-69
2024/01/13 11:43:03;;;;;;;19.10;9.35;;;;;;;;;;4957326;28;20050;-69
2024/01/13 11:45:35;;;;;;;17.67;8.55;;;;;;;;;;4958661;28;20054;-69
2024/01/13 11:48:29;;;;;;;13.40;7.15;;;;;;;;;;4974071;28;20058;-68
2024/01/13 11:50:55;;;;;;;17.02;7.80;;;;;;;;;;4975390;28;20097;-69
2024/01/13 11:53:42;;;;;;;22.67;8.60;;;;;;;;;;4974911;28;20121;-69
2024/01/13 11:56:09;;;;;;;19.13;9.15;;;;;;;;;;4957672;28;20058;-70
2024/01/13 11:58:36;;;;;;;20.17;7.88;;;;;;;;;;4974456;28;20061;-69
2024/01/13 12:01:02;;;;;;;17.63;9.55;;;;;;;;;;4974952;28;20150;-69
2024/01/13 12:03:29;;;;;;;13.50;7.25;;;;;;;;;;4974990;28;20042;-68
2024/01/13 12:05:54;;;;;;;14.82;7.22;;;;;;;;;;4958072;28;20042;-72
2024/01/13 12:08:20;;;;;;;12.48;7.25;;;;;;;;;;4974455;28;20625;-71
2024/01/13 12:10:49;;;;;;;18.83;8.60;;;;;;;;;;4975296;28;20101;-69
2024/01/13 12:13:18;;;;;;;21.50;10.40;;;;;;;;;;4957156;28;20042;-72
2024/01/13 12:15:47;;;;;;;15.15;8.13;;;;;;;;;;4974131;28;20050;-68
2024/01/13 12:18:21;;;;;;;12.93;6.75;;;;;;;;;;4972427;28;20042;-69
2024/01/13 12:21:00;;;;;;;15.38;6.63;;;;;;;;;;4975104;28;21350;-69
2024/01/13 12:23:26;;;;;;;17.00;8.55;;;;;;;;;;4973996;28;20177;-69
2024/01/13 12:25:52;;;;;;;15.25;8.48;;;;;;;;;;4974300;28;20046;-69
2024/01/13 12:28:19;;;;;;;30.05;12.68;;;;;;;;;;4957421;28;20070;-70
2024/01/13 12:30:45;;;;;;;19.40;9.63;;;;;;;;;;4975276;28;20042;-69
2024/01/13 12:33:11;;;;;;;19.52;9.93;;;;;;;;;;4977641;28;20122;-70
2024/01/13 12:35:37;;;;;;;20.20;10.18;;;;;;;;;;4961632;28;20046;-69
2024/01/13 12:38:06;;;;;;;18.20;8.95;;;;;;;;;;4978697;28;20470;-70
2024/01/13 12:40:32;;;;;;;16.60;9.27;;;;;;;;;;4961387;28;20070;-69
2024/01/13 12:42:58;;;;;;;19.33;8.90;;;;;;;;;;4977461;28;20446;-70
2024/01/13 12:45:26;;;;;;;22.92;11.15;;;;;;;;;;4977958;28;20038;-70
2024/01/13 12:47:56;;;;;;;26.55;11.13;;;;;;;;;;4978625;28;20121;-70
2024/01/13 12:50:22;;;;;;;25.52;10.88;;;;;;;;;;4978001;28;20049;-70
2024/01/13 12:52:48;;;;;;;14.77;7.93;;;;;;;;;;4977589;28;20046;-69
2024/01/13 12:55:13;;;;;;;23.58;11.70;;;;;;;;;;4960828;28;20053;-69
2024/01/13 12:57:39;;;;;;;28.65;11.00;;;;;;;;;;4960692;28;20046;-70
2024/01/13 13:00:05;;;;;;;25.38;12.98;;;;;;;;;;4976771;28;20062;-71
2024/01/13 13:02:34;;;;;;;22.10;11.73;;;;;;;;;;4978238;28;20050;-70
2024/01/13 13:05:01;;;;;;;17.70;10.60;;;;;;;;;;4977445;28;20046;-70
2024/01/13 13:07:28;;;;;;;23.60;11.27;;;;;;;;;;4977274;28;20072;-70
2024/01/13 13:09:55;;;;;;;19.40;8.93;;;;;;;;;;4977737;28;20050;-68
2024/01/13 13:12:22;;;;;;;23.88;11.43;;;;;;;;;;4959063;28;20579;-69
2024/01/13 13:14:48;;;;;;;24.70;11.70;;;;;;;;;;4977865;28;20046;-70
2024/01/13 13:17:14;;;;;;;24.88;11.77;;;;;;;;;;4975248;28;20053;-70
2024/01/13 13:19:40;;;;;;;24.38;12.40;;;;;;;;;;4978124;28;20077;-69
2024/01/13 13:22:07;;;;;;;26.17;12.68;;;;;;;;;;4976939;28;20101;-68
2024/01/13 13:24:33;;;;;;;24.92;10.23;;;;;;;;;;4978866;28;20607;-70
2024/01/13 13:26:58;;;;;;;20.25;10.27;;;;;;;;;;4976685;28;20121;-69
2024/01/13 13:29:24;;;;;;;31.90;14.57;;;;;;;;;;4976409;28;20519;-70
2024/01/13 13:31:50;;;;;;;26.00;12.48;;;;;;;;;;4977730;28;20042;-69
2024/01/13 13:34:15;;;;;;;26.48;11.25;;;;;;;;;;4976906;28;20411;-68
2024/01/13 13:36:41;;;;;;;27.52;12.15;;;;;;;;;;4976971;28;20762;-68
2024/01/13 13:39:06;;;;;;;22.98;11.27;;;;;;;;;;4978098;28;20137;-69
2024/01/13 13:41:32;;;;;;;20.55;9.80;;;;;;;;;;4959219;28;20058;-68
2024/01/13 13:43:57;;;;;;;19.70;8.55;;;;;;;;;;4976430;28;20053;-69
2024/01/13 13:46:22;;;;;;;16.13;9.65;;;;;;;;;;4959290;28;20519;-71
2024/01/13 13:48:48;;;;;;;13.63;8.88;;;;;;;;;;4976980;28;20105;-70
2024/01/13 13:51:13;;;;;;;23.23;12.27;;;;;;;;;;4976454;28;20053;-72
2024/01/13 13:53:39;;;;;;;22.02;12.23;;;;;;;;;;4975009;28;20057;-72
2024/01/13 13:56:05;;;;;;;33.20;14.68;;;;;;;;;;4972729;28;21114;-72
2024/01/13 13:58:31;;;;;;;28.77;12.82;;;;;;;;;;4971310;28;20070;-70
2024/01/13 14:00:56;;;;;;;27.20;12.93;;;;;;;;;;4975633;28;20050;-67
2024/01/13 14:03:22;;;;;;;29.75;12.90;;;;;;;;;;4940303;28;20047;-71
2024/01/13 14:05:47;;;;;;;18.23;10.10;;;;;;;;;;4974184;28;20054;-69
2024/01/13 14:08:13;;;;;;;20.95;9.18;;;;;;;;;;4957194;28;20157;-71
2024/01/13 14:10:38;;;;;;;25.77;10.50;;;;;;;;;;4974613;28;20583;-71
2024/01/13 14:13:04;;;;;;;17.33;10.15;;;;;;;;;;4961069;28;20054;-71
2024/01/13 14:15:30;;;;;;;17.20;7.88;;;;;;;;;;4985091;28;20058;-74
2024/01/13 14:17:58;;;;;;;23.80;11.25;;;;;;;;;;4989044;28;20056;-71